ADDS METAR Data INFO
IDs: Format: Raw Decoded Include TAF

Data at: 2258 UTC 16 Jan 2018

K05U 162235Z AUTO VRB03KT 10SM CLR 10/M00 A3029 RMK A01
K05U 162215Z AUTO 01004KT 10SM CLR 10/00 A3029 RMK A01
K05U 162155Z AUTO VRB04KT 10SM CLR 10/00 A3029 RMK A01
K05U 162135Z AUTO 02004KT 10SM CLR 09/00 A3028 RMK A01
K05U 162115Z AUTO 02006KT 10SM CLR 09/01 A3028 RMK A01
K05U 162055Z AUTO 03005KT 10SM CLR 08/01 A3029 RMK A01
K05U 162035Z AUTO 04007KT 10SM FEW080 08/01 A3029 RMK A01
K05U 162015Z AUTO 04007KT 10SM CLR 08/00 A3030 RMK A01
K05U 161955Z AUTO 04008KT 10SM SCT080 07/01 A3030 RMK A01
K05U 161935Z AUTO 03003KT 10SM OVC085 08/01 A3031 RMK A01
K05U 161915Z AUTO 00000KT 10SM OVC085 07/01 A3031 RMK A01
K05U 161855Z AUTO 00000KT 10SM SCT085 07/00 A3032 RMK A01
K05U 161835Z AUTO 00000KT 10SM CLR 06/M00 A3032 RMK A01
K05U 161815Z AUTO 00000KT 10SM CLR 05/M01 A3033 RMK A01
K05U 161755Z AUTO 00000KT 10SM CLR 04/M02 A3034 RMK A01
K05U 161735Z AUTO 26005KT 10SM CLR 03/M01 A3033 RMK A01
K05U 161715Z AUTO 19004KT 10SM CLR 02/M02 A3032 RMK A01
K05U 161655Z AUTO 11007KT 10SM SCT031 SCT037 01/M02 A3033 RMK A01
K05U 161635Z AUTO 11006KT 9SM SCT028 BKN034 OVC040 01/M02 A3033 RMK A01
K05U 161615Z AUTO 00000KT 10SM FEW028 SCT038 BKN047 01/M03 A3032 RMK A01
K05U 161555Z AUTO 13004KT 10SM SCT060 BKN070 OVC090 M00/M03 A3030 RMK A01
K05U 161535Z AUTO 20004KT 10SM FEW065 SCT075 BKN085 M01/M03 A3028 RMK A01
K05U 161515Z AUTO 22004KT 10SM FEW065 SCT075 BKN095 M01/M04 A3027 RMK A01
K05U 161455Z AUTO 20004KT 10SM SCT110 M02/M04 A3025 RMK A01
K05U 161435Z AUTO 21006KT 10SM CLR M02/M05 A3026 RMK A01
K05U 161415Z AUTO 18003KT 10SM CLR M02/M04 A3025 RMK A01
K05U 161355Z AUTO 17004KT 10SM SCT100 M02/M04 A3024 RMK A01
K05U 161335Z AUTO 00000KT 10SM OVC095 M02/M04 A3024 RMK A01
K05U 161315Z AUTO 21005KT 10SM OVC090 M02/M05 A3023 RMK A01
K05U 161255Z AUTO 20005KT 10SM OVC090 M02/M05 A3023 RMK A01
K05U 161235Z AUTO 16003KT 10SM OVC100 M03/M05 A3024 RMK A01
K05U 161215Z AUTO 16003KT 10SM SCT100 M03/M05 A3024 RMK A01
K05U 161155Z AUTO 00000KT 10SM CLR M04/M06 A3024 RMK A01
K05U 161135Z AUTO 24005KT 10SM CLR M05/M07 A3023 RMK A01
K05U 161115Z AUTO 24004KT 10SM FEW095 M04/M06 A3023 RMK A01
K05U 161055Z AUTO 00000KT 10SM SCT095 M04/M06 A3022 RMK A01
K05U 161035Z AUTO 00000KT 10SM CLR M04/M05 A3023 RMK A01
K05U 161015Z AUTO 19005KT 10SM CLR M03/M05 A3023 RMK A01
K05U 160955Z AUTO 20006KT 10SM CLR M03/M05 A3023 RMK A01
K05U 160935Z AUTO 00000KT 10SM CLR M02/M04 A3024 RMK A01
K05U 160915Z AUTO 00000KT 10SM CLR M02/M04 A3024 RMK A01
K05U 160855Z AUTO 17004KT 10SM CLR M02/M04 A3023 RMK A01
K05U 160835Z AUTO 19005KT 10SM CLR M03/M05 A3024 RMK A01
K05U 160815Z AUTO 19004KT 10SM CLR M03/M05 A3024 RMK A01
K05U 160755Z AUTO 00000KT 10SM CLR M04/M06 A3023 RMK A01
K05U 160735Z AUTO 00000KT 10SM CLR M04/M06 A3024 RMK A01
K05U 160715Z AUTO 00000KT 10SM CLR M04/M06 A3025 RMK A01
K05U 160655Z AUTO 21005KT 10SM CLR M04/M06 A3025 RMK A01
K05U 160635Z AUTO 20004KT 10SM CLR M05/M07 A3025 RMK A01
K05U 160615Z AUTO 00000KT 10SM CLR M03/M06 A3025 RMK A01
K05U 160555Z AUTO 18004KT 10SM CLR M04/M06 A3025 RMK A01
K05U 160535Z AUTO 18003KT 10SM CLR M03/M06 A3025 RMK A01
K05U 160515Z AUTO 00000KT 10SM CLR M03/M05 A3025 RMK A01
K05U 160455Z AUTO 00000KT 10SM CLR M04/M06 A3025 RMK A01
K05U 160435Z AUTO 00000KT 10SM CLR M03/M06 A3025 RMK A01
K05U 160415Z AUTO 17003KT 10SM CLR M02/M05 A3025 RMK A01
K05U 160355Z AUTO 17005KT 10SM CLR M02/M05 A3025 RMK A01
K05U 160335Z AUTO 18005KT 10SM CLR M03/M05 A3025 RMK A01
K05U 160315Z AUTO 00000KT 10SM CLR M03/M06 A3026 RMK A01
K05U 160255Z AUTO 00000KT 10SM CLR M02/M05 A3026 RMK A01
K05U 160235Z AUTO 00000KT 10SM CLR M00/M04 A3026 RMK A01
K05U 160215Z AUTO 17004KT 10SM CLR 00/M04 A3026 RMK A01
K05U 160155Z AUTO 00000KT 10SM CLR 01/M04 A3025 RMK A01
K05U 160135Z AUTO 00000KT 10SM CLR 01/M05 A3025 RMK A01
K05U 160115Z AUTO 04004KT 10SM CLR 03/M03 A3024 RMK A01
K05U 160055Z AUTO 04004KT 10SM CLR 05/M03 A3025 RMK A01
K05U 160035Z AUTO 04005KT 10SM CLR 08/M03 A3024 RMK A01
K05U 160015Z AUTO 00000KT 10SM CLR 10/M02 A3024 RMK A01
K05U 152355Z AUTO 00000KT 10SM CLR 11/M03 A3023 RMK A01
K05U 152335Z AUTO 32004KT 10SM CLR 11/M03 A3023 RMK A01
K05U 152315Z AUTO 36005KT 10SM CLR 11/M02 A3022 RMK A01
K05U 152255Z AUTO 01004KT 10SM CLR 12/M03 A3022 RMK A01
K05U 152235Z AUTO 00000KT 10SM CLR 12/M03 A3022 RMK A01
K05U 152215Z AUTO 02004KT 10SM CLR 12/M03 A3023 RMK A01
K05U 152155Z AUTO 00000KT 10SM CLR 12/M02 A3023 RMK A01
K05U 152135Z AUTO 00000KT 10SM CLR 11/M02 A3023 RMK A01
K05U 152115Z AUTO 00000KT 10SM CLR 11/M02 A3024 RMK A01
K05U 152055Z AUTO 00000KT 10SM CLR 10/M02 A3025 RMK A01
K05U 152035Z AUTO 06004KT 10SM CLR 10/M02 A3025 RMK A01
K05U 152015Z AUTO 03005KT 10SM CLR 09/M02 A3026 RMK A01
K05U 151955Z AUTO VRB04KT 10SM CLR 09/M01 A3027 RMK A01
K05U 151935Z AUTO 03006KT 10SM CLR 08/M01 A3028 RMK A01
K05U 151915Z AUTO 00000KT 10SM CLR 08/M01 A3029 RMK A01
K05U 151855Z AUTO 00000KT 10SM CLR 07/M01 A3029 RMK A01
K05U 151835Z AUTO 00000KT 10SM CLR 05/M01 A3030 RMK A01
K05U 151815Z AUTO 00000KT 10SM CLR 04/M01 A3031 RMK A01
K05U 151755Z AUTO 03004KT 10SM CLR 04/M01 A3031 RMK A01
K05U 151735Z AUTO 00000KT 10SM CLR 04/M02 A3031 RMK A01
K05U 151715Z AUTO 00000KT 10SM CLR 03/M02 A3031 RMK A01
K05U 151655Z AUTO 00000KT 10SM CLR M00/M03 A3031 RMK A01
K05U 151635Z AUTO 00000KT 10SM CLR M01/M04 A3031 RMK A01
K05U 151615Z AUTO 20004KT 10SM CLR M02/M04 A3030 RMK A01
K05U 151555Z AUTO 00000KT 10SM CLR M04/M05 A3030 RMK A01
K05U 151535Z AUTO 17004KT 10SM CLR M04/M06 A3029 RMK A01
K05U 151515Z AUTO 19004KT 10SM CLR M04/M05 A3029 RMK A01
K05U 151455Z AUTO 21004KT 10SM CLR M04/M06 A3028 RMK A01
K05U 151435Z AUTO 21004KT 10SM CLR M05/M07 A3027 RMK A01
K05U 151415Z AUTO 20004KT 10SM CLR M05/M06 A3027 RMK A01
K05U 151355Z AUTO 19004KT 10SM CLR M06/M07 A3027 RMK A01
K05U 151335Z AUTO 00000KT 10SM CLR M06/M07 A3027 RMK A01
K05U 151315Z AUTO 20003KT 10SM CLR M06/M07 A3028 RMK A01
K05U 151255Z AUTO 19003KT 10SM CLR M05/M07 A3028 RMK A01
K05U 151235Z AUTO 18004KT 10SM CLR M05/M07 A3029 RMK A01
K05U 151215Z AUTO 19004KT 10SM CLR M05/M07 A3030 RMK A01
K05U 151155Z AUTO 21005KT 10SM CLR M05/M07 A3031 RMK A01
K05U 151135Z AUTO 22007KT 10SM CLR M04/M06 A3032 RMK A01
K05U 151115Z AUTO 18003KT 10SM CLR M04/M06 A3032 RMK A01